createdAt,value
2022-09-20T00:03:54.697Z,11.39
2022-09-20T00:09:26.381Z,11.34
2022-09-20T00:14:58.238Z,11.28
2022-09-20T00:20:29.847Z,11.21
2022-09-20T00:26:01.574Z,11.2
2022-09-20T00:31:33.350Z,11.29
2022-09-20T00:37:05.064Z,11.29
2022-09-20T00:42:36.749Z,11.27
2022-09-20T00:48:08.520Z,11.28
2022-09-20T00:53:46.598Z,11.23
2022-09-20T00:59:18.367Z,11.23
2022-09-20T01:04:50.135Z,11.21
2022-09-20T01:10:21.856Z,11.26
2022-09-20T01:15:53.574Z,11.27
2022-09-20T01:21:25.257Z,11.22
2022-09-20T01:26:57.055Z,11.18
2022-09-20T01:32:28.693Z,11.19
2022-09-20T01:38:00.413Z,11.2
2022-09-20T01:43:32.129Z,11.23
2022-09-20T01:49:03.865Z,11.21
2022-09-20T01:54:41.990Z,11.16
2022-09-20T02:00:13.709Z,11.23
2022-09-20T02:05:45.465Z,11.25
2022-09-20T02:11:17.168Z,11.28
2022-09-20T02:16:48.917Z,11.26
2022-09-20T02:22:20.585Z,11.22
2022-09-20T02:27:52.324Z,11.27
2022-09-20T02:33:24.047Z,11.23
2022-09-20T02:38:55.774Z,11.23
2022-09-20T02:44:27.494Z,11.22
2022-09-20T02:49:59.230Z,11.21
2022-09-20T02:55:37.355Z,11.16
2022-09-20T03:01:09.105Z,11.05
2022-09-20T03:06:40.738Z,11.01
2022-09-20T03:12:12.496Z,10.99
2022-09-20T03:17:44.360Z,11.01
2022-09-20T03:23:15.956Z,10.96
2022-09-20T03:28:47.685Z,10.98
2022-09-20T03:34:19.431Z,11.0
2022-09-20T03:39:51.145Z,11.08
2022-09-20T03:45:22.867Z,11.04
2022-09-20T03:50:54.725Z,11.04
2022-09-20T03:56:30.706Z,11.13
2022-09-20T04:02:02.432Z,11.17
2022-09-20T04:07:34.164Z,11.21
2022-09-20T04:13:05.858Z,11.17
2022-09-20T04:18:37.564Z,11.12
2022-09-20T04:24:09.374Z,11.21
2022-09-20T04:29:41.086Z,11.27
2022-09-20T04:35:12.794Z,11.33
2022-09-20T04:40:44.548Z,11.39
2022-09-20T04:46:16.348Z,11.42
2022-09-20T04:51:47.914Z,11.39
2022-09-20T04:57:26.077Z,11.42
2022-09-20T05:02:57.777Z,11.45
2022-09-20T05:08:29.541Z,11.44
2022-09-20T05:14:01.241Z,11.39
2022-09-20T05:19:32.961Z,11.24
2022-09-20T05:25:04.658Z,11.19
2022-09-20T05:30:36.394Z,11.05
2022-09-20T05:36:08.202Z,11.04
2022-09-20T05:41:39.853Z,10.9
2022-09-20T05:47:11.595Z,11.03
2022-09-20T05:52:43.345Z,11.01
2022-09-20T05:58:19.425Z,11.17
2022-09-20T06:03:51.115Z,10.93
2022-09-20T06:09:22.937Z,11.25
2022-09-20T06:14:54.594Z,11.37
2022-09-20T06:20:26.395Z,11.45
2022-09-20T06:25:58.110Z,11.51
2022-09-20T06:31:29.792Z,11.66
2022-09-20T06:37:01.484Z,11.36
2022-09-20T06:42:33.215Z,11.72
2022-09-20T06:48:04.972Z,11.79
2022-09-20T06:53:36.713Z,12.19
2022-09-20T06:59:12.809Z,12.05
2022-09-20T07:04:44.493Z,11.66
2022-09-20T07:10:16.263Z,11.95
2022-09-20T07:15:47.968Z,11.98
2022-09-20T07:21:19.856Z,12.12
2022-09-20T07:26:51.416Z,11.88
2022-09-20T07:32:23.148Z,12.32
2022-09-20T07:37:54.873Z,12.14
2022-09-20T07:43:26.578Z,12.04
2022-09-20T07:48:58.334Z,12.15
2022-09-20T07:54:30.034Z,12.28
2022-09-20T08:00:06.203Z,12.33
2022-09-20T08:05:37.918Z,12.84
2022-09-20T08:11:09.635Z,12.79
2022-09-20T08:16:41.477Z,12.96
2022-09-20T08:22:13.539Z,13.23
2022-09-20T08:27:44.807Z,13.49
2022-09-20T08:33:16.569Z,13.26
2022-09-20T08:44:19.967Z,13.94
2022-09-20T08:49:56.639Z,13.9
2022-09-20T08:55:23.438Z,13.95
2022-09-20T09:01:01.725Z,13.63
2022-09-20T09:06:33.265Z,13.28
2022-09-20T09:12:05.006Z,13.03
2022-09-20T09:17:36.741Z,13.48
2022-09-20T09:23:08.486Z,13.5
2022-09-20T09:28:40.254Z,13.85
2022-09-20T09:34:11.850Z,13.29
2022-09-20T09:39:43.609Z,13.16
2022-09-20T09:45:15.293Z,13.29
2022-09-20T09:50:47.051Z,13.56
2022-09-20T09:56:18.786Z,13.74
2022-09-20T10:01:57.013Z,13.92
2022-09-20T10:07:28.608Z,13.94
2022-09-20T10:13:00.353Z,13.84
2022-09-20T10:18:32.110Z,14.01
2022-09-20T10:24:04.425Z,13.91
2022-09-20T10:29:35.545Z,14.06
2022-09-20T10:35:07.281Z,13.94
2022-09-20T10:40:38.974Z,14.0
2022-09-20T10:46:30.612Z,13.99
2022-09-20T10:51:42.445Z,13.92
2022-09-20T10:57:14.254Z,14.3
2022-09-20T11:02:50.509Z,14.38
2022-09-20T11:08:22.017Z,14.72
2022-09-20T11:13:53.734Z,15.06
2022-09-20T11:19:25.486Z,15.17
2022-09-20T11:24:57.211Z,15.35
2022-09-20T11:30:28.893Z,15.09
2022-09-20T11:36:00.673Z,15.29
2022-09-20T11:41:32.335Z,15.3
2022-09-20T11:47:04.094Z,15.26
2022-09-20T11:52:35.781Z,15.45
2022-09-20T11:58:07.530Z,15.29
2022-09-20T12:03:45.601Z,15.74
2022-09-20T12:09:17.360Z,15.65
2022-09-20T12:14:54.093Z,16.1
2022-09-20T12:20:20.812Z,16.27
2022-09-20T12:25:52.516Z,16.81
2022-09-20T12:31:24.330Z,16.39
2022-09-20T12:36:56.018Z,16.36
2022-09-20T12:42:27.743Z,16.4
2022-09-20T12:47:59.448Z,17.01
2022-09-20T12:53:31.157Z,17.28
2022-09-20T12:59:02.919Z,17.01
2022-09-20T13:04:39.010Z,16.87
2022-09-20T13:10:10.758Z,17.27
2022-09-20T13:15:42.475Z,16.59
2022-09-20T13:21:14.227Z,16.16
2022-09-20T13:26:45.935Z,16.17
2022-09-20T13:32:17.620Z,16.18
2022-09-20T13:37:49.380Z,15.82
2022-09-20T13:43:23.877Z,15.79
2022-09-20T13:48:52.843Z,15.01
2022-09-20T13:54:24.569Z,14.67
2022-09-20T13:59:56.321Z,14.53
2022-09-20T14:05:34.416Z,14.43
2022-09-20T14:11:06.273Z,14.33
2022-09-20T14:16:37.928Z,14.08
2022-09-20T14:22:09.571Z,14.32
2022-09-20T14:27:41.326Z,14.25
2022-09-20T14:33:13.035Z,14.57
2022-09-20T14:38:44.753Z,14.56
2022-09-20T14:44:16.476Z,14.94
2022-09-20T14:49:48.325Z,15.07
2022-09-20T14:55:19.945Z,15.33
2022-09-20T15:00:51.738Z,15.21
2022-09-20T15:06:27.756Z,15.23
2022-09-20T15:11:59.521Z,15.48
2022-09-20T15:17:31.352Z,15.72
2022-09-20T15:23:02.981Z,15.55
2022-09-20T15:28:34.648Z,15.38
2022-09-20T15:34:06.479Z,15.35
2022-09-20T15:39:38.215Z,15.52
2022-09-20T15:45:09.829Z,15.49
2022-09-20T15:50:41.601Z,15.59
2022-09-20T15:56:13.309Z,15.53
2022-09-20T16:01:45.057Z,15.51
2022-09-20T16:07:21.170Z,15.78
2022-09-20T16:12:52.906Z,15.52
2022-09-20T16:18:24.636Z,15.44
2022-09-20T16:23:56.292Z,15.34
2022-09-20T16:29:28.069Z,15.5
2022-09-20T16:34:59.805Z,15.5
2022-09-20T16:40:31.553Z,15.51
2022-09-20T16:46:03.187Z,15.37
2022-09-20T16:51:34.957Z,15.22
2022-09-20T16:57:06.685Z,15.23
2022-09-20T17:02:38.348Z,15.19
2022-09-20T17:08:14.493Z,15.07
2022-09-20T17:13:46.280Z,14.8
2022-09-20T17:19:17.938Z,15.03
2022-09-20T17:24:49.641Z,15.04
2022-09-20T17:30:21.365Z,14.82
2022-09-20T17:35:53.154Z,14.86
2022-09-20T17:41:24.797Z,14.79
2022-09-20T17:46:56.668Z,14.76
2022-09-20T17:52:28.266Z,14.62
2022-09-20T17:58:00.044Z,14.5
2022-09-20T18:03:31.714Z,14.35
2022-09-20T18:09:07.893Z,14.16
2022-09-20T18:14:39.524Z,14.06
2022-09-20T18:20:11.318Z,13.93
2022-09-20T18:25:43.049Z,13.82
2022-09-20T18:31:14.779Z,13.69
2022-09-20T18:36:46.412Z,13.57
2022-09-20T18:42:18.252Z,13.43
2022-09-20T18:47:49.887Z,13.38
2022-09-20T18:53:21.611Z,13.24
2022-09-20T18:58:53.384Z,13.13
2022-09-20T19:04:25.113Z,13.04
2022-09-20T19:10:01.158Z,13.04
2022-09-20T19:15:32.889Z,13.0
2022-09-20T19:21:04.760Z,12.86
2022-09-20T19:26:36.631Z,12.77
2022-09-20T19:32:08.089Z,12.69
2022-09-20T19:37:40.120Z,12.56
2022-09-20T19:43:11.586Z,12.45
2022-09-20T19:48:43.277Z,12.39
2022-09-20T19:54:14.952Z,12.44
2022-09-20T19:59:46.681Z,12.42
2022-09-20T20:05:18.554Z,12.45
2022-09-20T20:10:54.535Z,12.44
2022-09-20T20:16:26.203Z,12.38
2022-09-20T20:21:57.965Z,12.34
2022-09-20T20:27:29.766Z,12.31
2022-09-20T20:33:01.410Z,12.21
2022-09-20T20:38:33.130Z,12.2
2022-09-20T20:44:04.832Z,12.22
2022-09-20T20:49:36.572Z,12.13
2022-09-20T20:55:08.255Z,12.01
2022-09-20T21:00:40.022Z,11.86
2022-09-20T21:06:11.743Z,11.77
2022-09-20T21:11:47.867Z,11.71
2022-09-20T21:17:19.598Z,11.66
2022-09-20T21:22:51.322Z,11.66
2022-09-20T21:28:23.038Z,11.64
2022-09-20T21:33:54.837Z,11.66
2022-09-20T21:39:26.629Z,11.64
2022-09-20T21:44:58.205Z,11.58
2022-09-20T21:50:29.925Z,11.59
2022-09-20T21:56:01.674Z,11.59
2022-09-20T22:01:33.505Z,11.59
2022-09-20T22:07:05.154Z,11.5
2022-09-20T22:12:41.249Z,11.41
2022-09-20T22:18:12.951Z,11.31
2022-09-20T22:23:44.669Z,11.25
2022-09-20T22:29:16.409Z,11.14
2022-09-20T22:34:48.135Z,11.15
2022-09-20T22:40:19.908Z,11.16
2022-09-20T22:45:51.653Z,11.11
2022-09-20T22:51:23.359Z,10.99
2022-09-20T22:56:55.010Z,10.96
2022-09-20T23:02:26.754Z,10.98
2022-09-20T23:07:58.481Z,10.92
2022-09-20T23:13:36.645Z,10.96
2022-09-20T23:19:08.368Z,10.93
2022-09-20T23:24:40.050Z,10.85
2022-09-20T23:30:11.763Z,10.76
2022-09-20T23:35:43.506Z,10.75
2022-09-20T23:41:15.221Z,10.68
2022-09-20T23:46:46.939Z,10.69
2022-09-20T23:52:18.679Z,10.67
2022-09-20T23:57:50.426Z,10.56
